createdAt,value
2017-07-23T00:02:15.084Z,29.00
2017-07-23T00:04:43.201Z,29.00
2017-07-23T00:07:11.292Z,29.00
2017-07-23T00:09:39.422Z,29.00
2017-07-23T00:12:07.509Z,29.40
2017-07-23T00:14:35.627Z,30.20
2017-07-23T00:17:03.728Z,29.80
2017-07-23T00:19:31.823Z,29.30
2017-07-23T00:21:59.955Z,29.40
2017-07-23T00:24:28.067Z,29.40
2017-07-23T00:26:56.171Z,29.60
2017-07-23T00:29:24.291Z,29.40
2017-07-23T00:31:52.400Z,29.20
2017-07-23T00:34:20.504Z,29.30
2017-07-23T00:36:48.639Z,28.90
2017-07-23T00:39:17.615Z,28.80
2017-07-23T00:41:45.727Z,28.70
2017-07-23T00:44:13.928Z,29.00
2017-07-23T00:46:42.028Z,29.30
2017-07-23T00:49:10.183Z,29.40
2017-07-23T00:51:38.283Z,29.30
2017-07-23T00:54:06.456Z,29.60
2017-07-23T00:56:34.596Z,29.60
2017-07-23T00:59:02.688Z,29.70
2017-07-23T01:01:30.799Z,29.80
2017-07-23T01:03:58.896Z,29.80
2017-07-23T01:06:27.012Z,29.80
2017-07-23T01:08:55.122Z,29.70
2017-07-23T01:11:23.300Z,29.70
2017-07-23T01:13:51.493Z,29.90
2017-07-23T01:16:19.599Z,29.70
2017-07-23T01:18:47.711Z,30.00
2017-07-23T01:21:15.847Z,30.00
2017-07-23T01:23:43.948Z,30.00
2017-07-23T01:26:12.058Z,29.90
2017-07-23T01:28:40.156Z,30.00
2017-07-23T01:31:08.259Z,30.00
2017-07-23T01:33:36.375Z,30.10
2017-07-23T01:36:04.488Z,30.00
2017-07-23T01:38:32.591Z,30.10
2017-07-23T01:41:00.696Z,30.00
2017-07-23T01:43:33.687Z,30.00
2017-07-23T01:46:02.092Z,30.00
2017-07-23T01:48:30.215Z,30.10
2017-07-23T01:50:58.319Z,30.00
2017-07-23T01:53:26.415Z,31.90
2017-07-23T01:55:54.527Z,32.10
2017-07-23T01:58:22.652Z,31.20
2017-07-23T02:00:50.759Z,31.00
2017-07-23T02:03:18.859Z,31.10
2017-07-23T02:05:46.951Z,31.20
2017-07-23T02:08:15.063Z,31.10
2017-07-23T02:10:43.181Z,31.20
2017-07-23T02:13:11.291Z,31.10
2017-07-23T02:15:39.415Z,31.10
2017-07-23T02:18:07.516Z,31.90
2017-07-23T02:20:35.636Z,31.20
2017-07-23T02:23:03.751Z,31.20
2017-07-23T02:25:31.866Z,31.30
2017-07-23T02:28:04.963Z,31.20
2017-07-23T02:30:33.335Z,31.00
2017-07-23T02:33:01.463Z,31.30
2017-07-23T02:35:29.577Z,31.30
2017-07-23T02:37:57.683Z,31.40
2017-07-23T02:40:25.799Z,31.30
2017-07-23T02:42:53.894Z,32.00
2017-07-23T02:45:21.996Z,31.40
2017-07-23T02:47:50.087Z,31.40
2017-07-23T02:50:18.200Z,31.50
2017-07-23T02:52:46.307Z,31.70
2017-07-23T02:55:14.416Z,31.60
2017-07-23T02:57:42.520Z,31.60
2017-07-23T03:00:10.643Z,31.50
2017-07-23T03:02:38.774Z,31.50
2017-07-23T03:05:06.896Z,31.60
2017-07-23T03:07:35.017Z,31.60
2017-07-23T03:10:03.132Z,31.60
2017-07-23T03:12:31.244Z,31.60
2017-07-23T03:14:59.351Z,31.60
2017-07-23T03:17:27.527Z,31.70
2017-07-23T03:19:55.635Z,31.60
2017-07-23T03:22:23.740Z,31.70
2017-07-23T03:24:51.844Z,31.70
2017-07-23T03:27:19.997Z,31.70
2017-07-23T03:29:48.155Z,31.70
2017-07-23T03:32:16.279Z,31.60
2017-07-23T03:34:44.399Z,31.60
2017-07-23T03:37:12.516Z,31.60
2017-07-23T03:39:40.999Z,31.70
2017-07-23T03:42:09.112Z,31.70
2017-07-23T03:44:37.228Z,31.70
2017-07-23T03:47:05.351Z,31.70
2017-07-23T03:49:33.471Z,31.70
2017-07-23T03:52:01.556Z,32.00
2017-07-23T03:54:29.664Z,33.80
2017-07-23T03:56:57.786Z,33.00
2017-07-23T03:59:25.893Z,32.50
2017-07-23T04:01:54.024Z,32.50
2017-07-23T04:04:22.113Z,32.60
2017-07-23T04:06:50.318Z,32.50
2017-07-23T04:09:18.439Z,32.50
2017-07-23T04:11:46.540Z,32.50
2017-07-23T04:14:14.705Z,32.50
2017-07-23T04:16:42.852Z,32.40
2017-07-23T04:19:10.956Z,32.40
2017-07-23T04:21:39.059Z,32.30
2017-07-23T04:24:07.183Z,32.30
2017-07-23T04:26:35.288Z,32.30
2017-07-23T04:29:03.388Z,32.40
2017-07-23T04:31:31.543Z,32.30
2017-07-23T04:33:59.675Z,32.20
2017-07-23T04:36:27.782Z,32.30
2017-07-23T04:38:55.892Z,32.20
2017-07-23T04:41:24.056Z,32.80
2017-07-23T04:43:52.148Z,32.30
2017-07-23T04:46:20.263Z,32.30
2017-07-23T04:48:48.364Z,32.30
2017-07-23T04:51:16.471Z,32.40
2017-07-23T04:53:44.563Z,32.40
2017-07-23T04:56:12.695Z,32.30
2017-07-23T04:58:40.812Z,32.40
2017-07-23T05:01:08.932Z,32.40
2017-07-23T05:03:37.040Z,32.30
2017-07-23T05:06:05.158Z,32.40
2017-07-23T05:08:33.261Z,32.40
2017-07-23T05:11:01.390Z,32.50
2017-07-23T05:13:29.531Z,32.40
2017-07-23T05:15:57.652Z,32.50
2017-07-23T05:18:25.751Z,32.60
2017-07-23T05:20:53.844Z,32.70
2017-07-23T05:23:21.948Z,32.60
2017-07-23T05:25:50.100Z,32.50
2017-07-23T05:28:18.328Z,32.60
2017-07-23T05:30:46.423Z,32.60
2017-07-23T05:33:14.515Z,32.60
2017-07-23T05:35:42.769Z,32.60
2017-07-23T05:38:10.868Z,32.60
2017-07-23T05:40:38.988Z,32.60
2017-07-23T05:43:07.083Z,32.50
2017-07-23T05:45:35.193Z,32.50
2017-07-23T05:48:03.311Z,32.60
2017-07-23T05:50:31.427Z,32.50
2017-07-23T05:52:59.529Z,33.90
2017-07-23T05:55:27.647Z,34.20
2017-07-23T05:57:55.764Z,33.20
2017-07-23T06:00:23.856Z,32.90
2017-07-23T06:02:51.972Z,33.60
2017-07-23T06:05:20.172Z,33.20
2017-07-23T06:07:48.250Z,32.90
2017-07-23T06:10:16.343Z,32.90
2017-07-23T06:12:44.460Z,32.80
2017-07-23T06:15:12.600Z,32.80
2017-07-23T06:17:40.731Z,32.80
2017-07-23T06:20:08.844Z,33.30
2017-07-23T06:22:36.964Z,32.90
2017-07-23T06:25:05.076Z,32.80
2017-07-23T06:27:38.220Z,32.80
2017-07-23T06:30:06.307Z,33.40
2017-07-23T06:32:34.451Z,32.80
2017-07-23T06:35:02.560Z,32.80
2017-07-23T06:37:30.678Z,33.00
2017-07-23T06:39:58.771Z,33.00
2017-07-23T06:42:26.899Z,32.90
2017-07-23T06:44:55.003Z,33.00
2017-07-23T06:47:23.152Z,32.90
2017-07-23T06:49:51.295Z,33.00
2017-07-23T06:52:19.506Z,32.90
2017-07-23T06:54:47.613Z,33.00
2017-07-23T06:57:15.731Z,32.80
2017-07-23T06:59:43.819Z,32.80
2017-07-23T07:02:11.937Z,32.90
2017-07-23T07:04:40.027Z,32.90
2017-07-23T07:07:08.167Z,32.90
2017-07-23T07:09:36.291Z,32.80
2017-07-23T07:12:04.416Z,32.80
2017-07-23T07:14:32.630Z,32.80
2017-07-23T07:17:00.720Z,32.80
2017-07-23T07:19:28.835Z,32.90
2017-07-23T07:21:56.983Z,32.90
2017-07-23T07:24:25.097Z,32.90
2017-07-23T07:26:53.256Z,32.90
2017-07-23T07:29:21.392Z,32.90
2017-07-23T07:31:49.495Z,32.90
2017-07-23T07:34:17.617Z,32.80
2017-07-23T07:36:50.603Z,32.70
2017-07-23T07:39:18.791Z,32.80
2017-07-23T07:41:46.936Z,32.80
2017-07-23T07:44:15.048Z,32.80
2017-07-23T07:46:43.164Z,32.80
2017-07-23T07:49:11.291Z,32.60
2017-07-23T07:51:39.383Z,32.90
2017-07-23T07:54:07.486Z,34.50
2017-07-23T07:56:35.612Z,33.90
2017-07-23T07:59:03.714Z,33.20
2017-07-23T08:01:31.880Z,33.10
2017-07-23T08:04:00.000Z,32.80
2017-07-23T08:06:28.116Z,32.70
2017-07-23T08:08:56.258Z,33.10
2017-07-23T08:11:24.364Z,33.20
2017-07-23T08:13:52.467Z,33.10
2017-07-23T08:16:20.579Z,33.10
2017-07-23T08:21:26.452Z,33.20
2017-07-23T08:23:54.571Z,33.20
2017-07-23T08:27:47.279Z,33.10
2017-07-23T08:30:15.370Z,33.10
2017-07-23T08:32:43.500Z,33.20
2017-07-23T08:35:11.649Z,33.40
2017-07-23T08:37:39.746Z,33.10
2017-07-23T08:40:07.855Z,33.20
2017-07-23T08:42:35.966Z,33.20
2017-07-23T08:45:08.943Z,33.20
2017-07-23T08:47:37.391Z,33.20
2017-07-23T08:50:05.508Z,33.10
2017-07-23T08:52:33.627Z,33.10
2017-07-23T08:55:01.741Z,33.10
2017-07-23T08:57:29.932Z,33.10
2017-07-23T08:59:58.051Z,32.40
2017-07-23T09:02:26.164Z,33.10
2017-07-23T09:04:54.280Z,33.10
2017-07-23T09:07:22.385Z,33.10
2017-07-23T09:09:50.507Z,33.20
2017-07-23T09:12:18.610Z,33.10
2017-07-23T09:14:46.756Z,33.00
2017-07-23T09:17:14.863Z,32.90
2017-07-23T09:19:43.007Z,32.90
2017-07-23T09:22:11.111Z,32.80
2017-07-23T09:24:39.204Z,32.90
2017-07-23T09:27:07.323Z,32.90
2017-07-23T09:29:35.447Z,32.80
2017-07-23T09:32:03.579Z,32.90
2017-07-23T09:34:31.684Z,32.90
2017-07-23T09:37:00.349Z,33.30
2017-07-23T09:39:28.464Z,32.80
2017-07-23T09:41:56.580Z,32.90
2017-07-23T09:44:24.687Z,32.80
2017-07-23T09:46:52.799Z,33.00
2017-07-23T09:49:20.900Z,33.10
2017-07-23T09:51:49.024Z,33.00
2017-07-23T09:54:17.111Z,34.60
2017-07-23T09:56:50.380Z,33.90
2017-07-23T09:59:18.491Z,33.10
2017-07-23T10:01:46.600Z,32.70
2017-07-23T10:04:14.719Z,32.70
2017-07-23T10:06:42.841Z,32.70
2017-07-23T10:09:10.946Z,32.70
2017-07-23T10:11:39.051Z,32.50
2017-07-23T10:14:07.223Z,32.50
2017-07-23T10:16:35.344Z,32.40
2017-07-23T10:19:03.451Z,32.40
2017-07-23T10:21:31.551Z,32.30
2017-07-23T10:23:59.655Z,32.30
2017-07-23T10:26:27.768Z,32.20
2017-07-23T10:28:56.475Z,32.20
2017-07-23T10:31:24.591Z,32.30
2017-07-23T10:33:52.699Z,32.00
2017-07-23T10:36:20.889Z,31.90
2017-07-23T10:38:49.068Z,31.90
2017-07-23T10:41:17.179Z,31.80
2017-07-23T10:43:45.287Z,31.80
2017-07-23T10:46:13.412Z,31.70
2017-07-23T10:48:41.528Z,31.70
2017-07-23T10:51:09.651Z,31.60
2017-07-23T10:53:37.739Z,31.70
2017-07-23T10:56:05.839Z,31.50
2017-07-23T10:58:33.955Z,31.50
2017-07-23T11:01:02.570Z,31.40
2017-07-23T11:03:30.709Z,31.40
2017-07-23T11:05:58.840Z,31.30
2017-07-23T11:08:27.043Z,31.30
2017-07-23T11:10:55.171Z,31.30
2017-07-23T11:13:23.299Z,31.30
2017-07-23T11:15:51.407Z,31.30
2017-07-23T11:18:19.511Z,31.10
2017-07-23T11:20:47.621Z,31.00
2017-07-23T11:23:15.724Z,31.00
2017-07-23T11:25:43.859Z,30.90
2017-07-23T11:28:11.968Z,30.90
2017-07-23T11:30:40.114Z,30.70
2017-07-23T11:33:08.204Z,30.70
2017-07-23T11:35:36.317Z,30.70
2017-07-23T11:38:04.483Z,30.60
2017-07-23T11:40:32.575Z,30.60
2017-07-23T11:43:00.736Z,30.50
2017-07-23T11:45:29.659Z,30.40
2017-07-23T11:47:57.784Z,30.50
2017-07-23T11:50:25.956Z,30.50
2017-07-23T11:52:54.092Z,31.60
2017-07-23T11:55:22.268Z,32.10
2017-07-23T11:57:50.375Z,31.50
2017-07-23T12:00:18.471Z,30.80
2017-07-23T12:02:46.589Z,30.90
2017-07-23T12:05:14.697Z,30.90
2017-07-23T12:07:42.802Z,30.90
2017-07-23T12:10:10.908Z,31.00
2017-07-23T12:12:39.716Z,31.00
2017-07-23T12:15:07.816Z,30.90
2017-07-23T12:17:35.911Z,30.90
2017-07-23T12:20:04.017Z,31.00
2017-07-23T12:22:32.112Z,31.00
2017-07-23T12:25:00.211Z,31.00
2017-07-23T12:27:28.307Z,30.90
2017-07-23T12:29:56.409Z,30.90
2017-07-23T12:32:24.528Z,30.90
2017-07-23T12:34:52.644Z,30.60
2017-07-23T12:37:20.743Z,30.80
2017-07-23T12:39:48.853Z,30.80
2017-07-23T12:42:17.011Z,30.80
2017-07-23T12:44:45.127Z,30.60
2017-07-23T12:47:13.216Z,30.50
2017-07-23T12:49:41.401Z,30.50
2017-07-23T12:52:09.520Z,30.50
2017-07-23T12:54:37.635Z,30.20
2017-07-23T12:57:05.752Z,30.30
2017-07-23T12:59:33.859Z,30.20
2017-07-23T13:02:01.960Z,30.30
2017-07-23T13:04:30.082Z,30.40
2017-07-23T13:06:58.190Z,30.40
2017-07-23T13:09:26.304Z,30.30
2017-07-23T13:11:54.447Z,30.30
2017-07-23T13:14:22.547Z,30.20
2017-07-23T13:16:50.648Z,30.10
2017-07-23T13:19:18.824Z,30.40
2017-07-23T13:21:46.937Z,30.20
2017-07-23T13:24:15.040Z,30.40
2017-07-23T13:26:43.151Z,30.40
2017-07-23T13:29:11.263Z,30.40
2017-07-23T13:31:39.381Z,30.30
2017-07-23T13:34:07.463Z,30.30
2017-07-23T13:36:35.567Z,30.40
2017-07-23T13:39:03.748Z,30.50
2017-07-23T13:41:31.857Z,30.40
2017-07-23T13:43:59.964Z,30.40
2017-07-23T13:46:28.052Z,30.30
2017-07-23T13:48:56.184Z,30.30
2017-07-23T13:51:24.303Z,30.20
2017-07-23T13:53:52.407Z,31.80
2017-07-23T13:56:20.512Z,31.60
2017-07-23T13:58:48.652Z,30.70
2017-07-23T14:01:16.766Z,30.60
2017-07-23T14:03:44.880Z,30.80
2017-07-23T14:06:12.995Z,30.70
2017-07-23T14:08:41.111Z,30.80
2017-07-23T14:11:09.221Z,30.80
2017-07-23T14:13:37.319Z,30.80
2017-07-23T14:16:05.403Z,30.70
2017-07-23T14:18:33.496Z,30.60
2017-07-23T14:21:01.606Z,30.70
2017-07-23T14:24:54.471Z,30.60
2017-07-23T14:27:22.568Z,30.60
2017-07-23T14:29:50.695Z,30.70
2017-07-23T14:32:18.796Z,30.70
2017-07-23T14:34:46.984Z,30.80
2017-07-23T14:37:15.104Z,30.70
2017-07-23T14:39:43.236Z,30.60
2017-07-23T14:42:12.288Z,30.80
2017-07-23T14:44:41.423Z,30.50
2017-07-23T14:47:09.552Z,30.50
2017-07-23T14:49:37.675Z,30.50
2017-07-23T14:52:05.785Z,30.50
2017-07-23T14:54:33.887Z,30.20
2017-07-23T14:57:02.000Z,30.20
2017-07-23T14:59:30.131Z,30.20
2017-07-23T15:01:58.219Z,30.00
2017-07-23T15:04:26.339Z,30.10
2017-07-23T15:06:54.455Z,30.10
2017-07-23T15:09:22.547Z,30.10
2017-07-23T15:11:50.636Z,30.10
2017-07-23T15:14:18.756Z,30.10
2017-07-23T15:16:46.873Z,30.10
2017-07-23T15:19:14.967Z,30.00
2017-07-23T15:21:47.805Z,30.00
2017-07-23T15:24:16.204Z,30.00
2017-07-23T15:26:44.307Z,30.00
2017-07-23T15:29:12.430Z,30.00
2017-07-23T15:31:40.633Z,30.00
2017-07-23T15:34:08.707Z,30.00
2017-07-23T15:36:36.795Z,30.00
2017-07-23T15:39:05.215Z,30.00
2017-07-23T15:41:33.388Z,30.00
2017-07-23T15:44:01.493Z,29.90
2017-07-23T15:46:29.591Z,30.00
2017-07-23T15:48:57.951Z,29.90
2017-07-23T15:51:26.055Z,29.90
2017-07-23T15:53:54.503Z,31.30
2017-07-23T15:56:22.599Z,31.00
2017-07-23T15:58:50.797Z,30.00
2017-07-23T16:01:18.887Z,30.00
2017-07-23T16:03:47.695Z,30.10
2017-07-23T16:06:15.900Z,30.10
2017-07-23T16:08:44.003Z,30.00
2017-07-23T16:11:12.095Z,30.00
2017-07-23T16:13:40.188Z,30.00
2017-07-23T16:16:08.304Z,29.90
2017-07-23T16:18:36.415Z,29.90
2017-07-23T16:21:04.507Z,29.80
2017-07-23T16:23:32.639Z,29.80
2017-07-23T16:26:00.755Z,29.80
2017-07-23T16:28:28.924Z,29.80
2017-07-23T16:30:57.018Z,29.80
2017-07-23T16:33:25.128Z,29.80
2017-07-23T16:35:53.284Z,29.80
2017-07-23T16:38:21.351Z,29.80
2017-07-23T16:40:49.463Z,29.70
2017-07-23T16:43:17.572Z,29.80
2017-07-23T16:45:45.728Z,29.80
2017-07-23T16:48:13.839Z,29.80
2017-07-23T16:50:41.953Z,29.70
2017-07-23T16:53:10.103Z,29.70
2017-07-23T16:55:38.215Z,29.70
2017-07-23T16:58:06.347Z,29.70
2017-07-23T17:00:34.459Z,29.70
2017-07-23T17:03:02.559Z,29.70
2017-07-23T17:05:30.670Z,29.70
2017-07-23T17:07:58.781Z,29.60
2017-07-23T17:10:26.905Z,29.60
2017-07-23T17:12:55.031Z,29.60
2017-07-23T17:15:23.168Z,29.60
2017-07-23T17:17:51.276Z,29.70
2017-07-23T17:20:19.428Z,29.60
2017-07-23T17:22:47.566Z,29.60
2017-07-23T17:25:15.664Z,29.60
2017-07-23T17:27:43.768Z,29.70
2017-07-23T17:30:11.886Z,29.70
2017-07-23T17:32:40.111Z,29.70
2017-07-23T17:35:08.220Z,29.80
2017-07-23T17:37:36.347Z,29.80
2017-07-23T17:40:04.448Z,29.80
2017-07-23T17:42:32.768Z,29.90
2017-07-23T17:45:00.860Z,29.80
2017-07-23T17:47:28.967Z,29.80
2017-07-23T17:49:57.089Z,29.80
2017-07-23T17:52:25.175Z,30.40
2017-07-23T17:54:53.267Z,31.40
2017-07-23T17:57:21.452Z,30.60
2017-07-23T17:59:49.559Z,30.10
2017-07-23T18:02:17.680Z,30.30
2017-07-23T18:06:10.280Z,30.30
2017-07-23T18:08:38.655Z,30.30
2017-07-23T18:11:06.755Z,30.50
2017-07-23T18:14:59.353Z,30.60
2017-07-23T18:17:27.472Z,30.60
2017-07-23T18:19:55.580Z,30.70
2017-07-23T18:22:23.707Z,30.70
2017-07-23T18:24:51.821Z,30.70
2017-07-23T18:27:19.927Z,30.60
2017-07-23T18:29:48.059Z,30.60
2017-07-23T18:32:16.164Z,30.50
2017-07-23T18:34:44.328Z,30.60
2017-07-23T18:37:12.452Z,30.60
2017-07-23T18:39:40.561Z,30.50
2017-07-23T18:42:08.676Z,31.10
2017-07-23T18:44:36.791Z,30.30
2017-07-23T18:47:04.888Z,30.30
2017-07-23T18:49:33.027Z,30.30
2017-07-23T18:52:01.171Z,30.30
2017-07-23T18:54:29.256Z,30.40
2017-07-23T18:56:57.355Z,30.40
2017-07-23T18:59:25.507Z,30.50
2017-07-23T19:01:53.631Z,30.50
2017-07-23T19:04:21.741Z,31.10
2017-07-23T19:06:49.860Z,30.50
2017-07-23T19:09:17.979Z,30.50
2017-07-23T19:11:46.091Z,30.50
2017-07-23T19:14:14.208Z,30.60
2017-07-23T19:16:42.395Z,30.60
2017-07-23T19:19:10.590Z,30.60
2017-07-23T19:21:38.699Z,30.70
2017-07-23T19:24:06.819Z,30.80
2017-07-23T19:26:34.916Z,30.90
2017-07-23T19:29:03.017Z,31.00
2017-07-23T19:31:31.145Z,31.00
2017-07-23T19:33:59.233Z,31.10
2017-07-23T19:36:27.340Z,31.20
2017-07-23T19:38:55.499Z,31.20
2017-07-23T19:41:23.615Z,31.20
2017-07-23T19:43:51.735Z,31.20
2017-07-23T19:46:20.240Z,31.40
2017-07-23T19:48:48.362Z,31.50
2017-07-23T19:51:16.480Z,31.50
2017-07-23T19:53:44.599Z,33.40
2017-07-23T19:56:12.691Z,33.00
2017-07-23T19:58:40.802Z,32.40
2017-07-23T20:01:08.897Z,32.40
2017-07-23T20:03:37.027Z,32.50
2017-07-23T20:06:05.126Z,32.60
2017-07-23T20:08:33.227Z,32.60
2017-07-23T20:11:01.327Z,32.70
2017-07-23T20:13:29.431Z,32.60
2017-07-23T20:15:57.536Z,32.70
2017-07-23T20:18:25.699Z,32.70
2017-07-23T20:20:53.844Z,32.60
2017-07-23T20:23:21.948Z,32.70
2017-07-23T20:25:50.072Z,32.40
2017-07-23T20:29:42.991Z,32.80
2017-07-23T20:32:11.079Z,32.80
2017-07-23T20:34:39.205Z,33.10
2017-07-23T20:37:07.323Z,33.10
2017-07-23T20:39:35.443Z,33.10
2017-07-23T20:42:04.427Z,33.00
2017-07-23T20:44:32.523Z,32.80
2017-07-23T20:47:00.627Z,33.00
2017-07-23T20:49:28.759Z,33.00
2017-07-23T20:51:56.909Z,33.00
2017-07-23T20:54:25.019Z,33.00
2017-07-23T20:56:53.135Z,33.00
2017-07-23T20:59:21.279Z,33.00
2017-07-23T21:01:49.388Z,32.90
2017-07-23T21:04:17.487Z,32.90
2017-07-23T21:06:46.127Z,32.80
2017-07-23T21:09:14.236Z,32.80
2017-07-23T21:11:42.355Z,32.90
2017-07-23T21:14:10.452Z,32.80
2017-07-23T21:16:38.651Z,32.80
2017-07-23T21:19:06.760Z,32.80
2017-07-23T21:21:34.880Z,32.70
2017-07-23T21:24:03.007Z,32.80
2017-07-23T21:26:31.219Z,32.80
2017-07-23T21:28:59.327Z,32.80
2017-07-23T21:31:27.459Z,32.90
2017-07-23T21:33:55.627Z,32.90
2017-07-23T21:36:23.724Z,32.80
2017-07-23T21:38:51.831Z,32.90
2017-07-23T21:41:19.966Z,33.00
2017-07-23T21:43:48.047Z,32.80
2017-07-23T21:46:16.162Z,32.90
2017-07-23T21:48:44.651Z,32.90
2017-07-23T21:51:17.686Z,32.90
2017-07-23T21:53:46.075Z,34.80
2017-07-23T21:56:14.172Z,34.30
2017-07-23T21:58:42.267Z,33.50
2017-07-23T22:01:10.384Z,33.40
2017-07-23T22:03:38.488Z,33.50
2017-07-23T22:06:06.583Z,33.50
2017-07-23T22:08:34.739Z,33.40
2017-07-23T22:11:02.852Z,33.60
2017-07-23T22:13:31.831Z,33.60
2017-07-23T22:15:59.928Z,33.60
2017-07-23T22:18:28.046Z,33.50
2017-07-23T22:20:56.455Z,33.50
2017-07-23T22:23:24.527Z,33.50
2017-07-23T22:25:52.632Z,33.40
2017-07-23T22:28:20.752Z,33.50
2017-07-23T22:30:48.851Z,33.50
2017-07-23T22:33:16.951Z,33.60
2017-07-23T22:35:45.048Z,33.60
2017-07-23T22:38:13.146Z,33.50
2017-07-23T22:40:41.274Z,33.50
2017-07-23T22:43:09.418Z,33.50
2017-07-23T22:45:37.512Z,33.60
2017-07-23T22:48:05.631Z,33.60
2017-07-23T22:50:33.772Z,33.60
2017-07-23T22:53:01.904Z,33.30
2017-07-23T22:55:30.007Z,33.50
2017-07-23T22:57:58.132Z,33.50
2017-07-23T23:00:26.252Z,33.50
2017-07-23T23:02:54.351Z,33.50
2017-07-23T23:05:22.499Z,33.50
2017-07-23T23:07:50.586Z,33.60
2017-07-23T23:10:18.695Z,33.60
2017-07-23T23:12:46.814Z,33.60
2017-07-23T23:15:14.970Z,33.60
2017-07-23T23:17:43.059Z,33.60
2017-07-23T23:20:11.207Z,34.20
2017-07-23T23:25:11.836Z,33.50
2017-07-23T23:27:40.283Z,33.50
2017-07-23T23:30:08.492Z,33.40
2017-07-23T23:32:36.639Z,33.50
2017-07-23T23:35:04.745Z,33.40
2017-07-23T23:37:32.850Z,33.30
2017-07-23T23:40:00.943Z,33.40
2017-07-23T23:42:29.088Z,33.30
2017-07-23T23:44:57.267Z,33.40
2017-07-23T23:47:25.363Z,33.40
2017-07-23T23:49:53.535Z,33.40
2017-07-23T23:52:21.660Z,34.00
2017-07-23T23:54:49.823Z,35.30
2017-07-23T23:57:17.916Z,34.30
2017-07-23T23:59:46.032Z,33.90
